Time;durP1;ratioP1;P1;durP2;ratioP2;P2;SDS_P1;SDS_P2;PMS_P1;PMS_P2;Temp;Humidity;BMP_temperature;BMP_pressure;BME280_temperature;BME280_humidity;BME280_pressure;Samples;Min_cycle;Max_cycle;Signal;HPM_P1;HPM_P2
2023/09/21 00:01:16;;;;;;;8.15;5.13;;;;;;;;;;5033724;28;20204;-46
2023/09/21 00:03:44;;;;;;;8.82;4.80;;;;;;;;;;5033530;28;20231;-46
2023/09/21 00:06:13;;;;;;;9.75;4.82;;;;;;;;;;5033211;28;20208;-47
2023/09/21 00:08:41;;;;;;;7.68;4.75;;;;;;;;;;5033806;28;20208;-46
2023/09/21 00:11:09;;;;;;;6.13;4.22;;;;;;;;;;5033324;28;20212;-46
2023/09/21 00:13:39;;;;;;;7.55;4.47;;;;;;;;;;5033114;28;20201;-48
2023/09/21 00:16:14;;;;;;;8.88;4.80;;;;;;;;;;5033755;28;20209;-47
2023/09/21 00:18:42;;;;;;;6.38;4.20;;;;;;;;;;5033707;28;20205;-48
2023/09/21 00:21:12;;;;;;;10.40;4.85;;;;;;;;;;5033151;28;20661;-46
2023/09/21 00:23:41;;;;;;;9.65;4.82;;;;;;;;;;5033298;28;20254;-46
2023/09/21 00:26:09;;;;;;;9.80;5.00;;;;;;;;;;5033304;28;20210;-46
2023/09/21 00:28:37;;;;;;;9.65;4.32;;;;;;;;;;5015774;28;20255;-46
2023/09/21 00:31:04;;;;;;;9.00;4.72;;;;;;;;;;5015499;28;20715;-46
2023/09/21 00:33:33;;;;;;;6.40;4.55;;;;;;;;;;5032130;28;20247;-46
2023/09/21 00:36:07;;;;;;;7.55;4.60;;;;;;;;;;5033037;28;20604;-47
2023/09/21 00:38:35;;;;;;;10.13;4.80;;;;;;;;;;5033078;28;20204;-46
2023/09/21 00:41:07;;;;;;;7.13;4.55;;;;;;;;;;5033174;28;20208;-46
2023/09/21 00:43:35;;;;;;;10.07;5.20;;;;;;;;;;5036087;28;20248;-46
2023/09/21 00:46:03;;;;;;;7.07;5.35;;;;;;;;;;5019416;28;20197;-46
2023/09/21 00:48:36;;;;;;;9.27;5.70;;;;;;;;;;5019319;28;20211;-46
2023/09/21 00:51:07;;;;;;;7.95;5.07;;;;;;;;;;5036842;28;20236;-49
2023/09/21 00:53:36;;;;;;;11.70;4.88;;;;;;;;;;5036894;28;20231;-46
2023/09/21 00:56:11;;;;;;;7.43;4.70;;;;;;;;;;5019123;28;20259;-45
2023/09/21 00:58:44;;;;;;;7.85;4.68;;;;;;;;;;5036469;28;20559;-46
2023/09/21 01:01:16;;;;;;;6.95;4.45;;;;;;;;;;5019487;28;20204;-46
2023/09/21 01:03:45;;;;;;;9.38;4.93;;;;;;;;;;5036349;28;20242;-46
2023/09/21 01:06:16;;;;;;;10.15;4.68;;;;;;;;;;5036271;28;20287;-47
2023/09/21 01:08:44;;;;;;;6.30;4.57;;;;;;;;;;5018768;28;20201;-46
2023/09/21 01:11:14;;;;;;;9.38;4.88;;;;;;;;;;5036480;28;20220;-46
2023/09/21 01:13:42;;;;;;;10.40;4.80;;;;;;;;;;5036323;28;20200;-46
2023/09/21 01:16:13;;;;;;;5.53;4.07;;;;;;;;;;5018518;28;20207;-46
2023/09/21 01:18:41;;;;;;;9.85;4.60;;;;;;;;;;5018921;28;20209;-46
2023/09/21 01:21:12;;;;;;;10.05;4.75;;;;;;;;;;5018552;28;20284;-48
2023/09/21 01:23:42;;;;;;;8.13;4.25;;;;;;;;;;5036289;28;20263;-46
2023/09/21 01:26:13;;;;;;;7.28;4.45;;;;;;;;;;5018612;28;20200;-47
2023/09/21 01:28:41;;;;;;;7.05;4.45;;;;;;;;;;5035947;28;20208;-46
2023/09/21 01:31:13;;;;;;;6.88;4.47;;;;;;;;;;5035874;28;20655;-46
2023/09/21 01:33:44;;;;;;;7.72;4.30;;;;;;;;;;5036112;28;20204;-47
2023/09/21 01:36:15;;;;;;;10.98;4.53;;;;;;;;;;5036004;28;20205;-47
2023/09/21 01:38:46;;;;;;;7.63;4.50;;;;;;;;;;5035690;28;20212;-46
2023/09/21 01:41:16;;;;;;;11.38;4.45;;;;;;;;;;5018551;28;20293;-45
2023/09/21 01:43:44;;;;;;;12.95;4.60;;;;;;;;;;5036006;28;20301;-46
2023/09/21 01:46:18;;;;;;;10.68;4.45;;;;;;;;;;5018196;28;20200;-46
2023/09/21 01:48:46;;;;;;;5.82;3.65;;;;;;;;;;5035841;28;20208;-48
2023/09/21 01:51:14;;;;;;;10.93;5.20;;;;;;;;;;5018137;28;20225;-46
2023/09/21 01:53:43;;;;;;;7.20;4.30;;;;;;;;;;5034761;28;20209;-46
2023/09/21 01:56:11;;;;;;;7.32;3.78;;;;;;;;;;5035803;28;20232;-46
2023/09/21 01:58:38;;;;;;;10.85;4.60;;;;;;;;;;5017720;28;20614;-46
2023/09/21 02:01:06;;;;;;;6.10;4.40;;;;;;;;;;5017676;28;20727;-46
2023/09/21 02:03:34;;;;;;;7.60;4.63;;;;;;;;;;5035375;28;20205;-45
2023/09/21 02:06:02;;;;;;;6.35;4.07;;;;;;;;;;5035266;28;20205;-45
2023/09/21 02:08:33;;;;;;;7.00;4.47;;;;;;;;;;5035390;28;20205;-46
2023/09/21 02:11:00;;;;;;;8.40;4.68;;;;;;;;;;5035581;28;20224;-46
2023/09/21 02:13:30;;;;;;;8.35;4.18;;;;;;;;;;5035000;28;20669;-47
2023/09/21 02:15:57;;;;;;;6.65;3.78;;;;;;;;;;5017656;28;20208;-46
2023/09/21 02:18:24;;;;;;;7.70;4.18;;;;;;;;;;5035027;28;20208;-46
2023/09/21 02:20:55;;;;;;;11.20;4.45;;;;;;;;;;5017142;28;20197;-45
2023/09/21 02:23:26;;;;;;;7.95;4.30;;;;;;;;;;5035286;28;20586;-46
2023/09/21 02:25:53;;;;;;;8.50;4.80;;;;;;;;;;5017266;28;20251;-46
2023/09/21 02:28:22;;;;;;;7.50;4.43;;;;;;;;;;5033843;28;20205;-46
2023/09/21 02:30:50;;;;;;;7.97;4.32;;;;;;;;;;5017278;28;20224;-46
2023/09/21 02:33:18;;;;;;;11.32;4.28;;;;;;;;;;5034617;28;20661;-46
2023/09/21 02:35:46;;;;;;;6.50;4.35;;;;;;;;;;5017034;28;20211;-45
2023/09/21 02:38:20;;;;;;;8.93;4.80;;;;;;;;;;5034622;28;20224;-46
2023/09/21 02:40:47;;;;;;;7.43;4.85;;;;;;;;;;5017353;28;20282;-45
2023/09/21 02:43:16;;;;;;;6.70;4.32;;;;;;;;;;5017073;28;20240;-46
2023/09/21 02:45:44;;;;;;;8.18;4.40;;;;;;;;;;5034508;28;20208;-46
2023/09/21 02:48:15;;;;;;;7.72;4.57;;;;;;;;;;5017024;28;20205;-47
2023/09/21 02:50:47;;;;;;;12.95;4.68;;;;;;;;;;5016968;28;20231;-46
2023/09/21 02:53:16;;;;;;;7.45;4.35;;;;;;;;;;5034636;28;20197;-46
2023/09/21 02:55:45;;;;;;;9.15;4.50;;;;;;;;;;5016789;28;20204;-47
2023/09/21 02:58:13;;;;;;;7.18;4.30;;;;;;;;;;5032913;28;20204;-46
2023/09/21 03:00:51;;;;;;;9.13;4.63;;;;;;;;;;5017009;28;20193;-46
2023/09/21 03:03:20;;;;;;;6.03;4.10;;;;;;;;;;5033199;28;20196;-45
2023/09/21 03:05:49;;;;;;;6.47;4.22;;;;;;;;;;5016778;28;20220;-45
2023/09/21 03:08:17;;;;;;;7.03;4.03;;;;;;;;;;5033241;28;20263;-46
2023/09/21 03:10:55;;;;;;;10.25;4.70;;;;;;;;;;5016362;28;20298;-45
2023/09/21 03:13:23;;;;;;;9.23;4.85;;;;;;;;;;5016783;28;20669;-46
2023/09/21 03:15:58;;;;;;;13.73;4.88;;;;;;;;;;5016261;28;20193;-45
2023/09/21 03:18:29;;;;;;;6.63;4.72;;;;;;;;;;5016645;28;20200;-46
2023/09/21 03:20:57;;;;;;;7.78;5.18;;;;;;;;;;5016349;28;20215;-46
2023/09/21 03:23:26;;;;;;;10.40;5.35;;;;;;;;;;5016162;28;20610;-46
2023/09/21 03:25:54;;;;;;;7.18;5.07;;;;;;;;;;5034118;28;20196;-46
2023/09/21 03:28:25;;;;;;;9.25;5.65;;;;;;;;;;5016195;28;20212;-46
2023/09/21 03:30:54;;;;;;;5.72;4.20;;;;;;;;;;5019939;28;20220;-47
2023/09/21 03:33:22;;;;;;;8.80;5.05;;;;;;;;;;5032042;28;20207;-46
2023/09/21 03:35:49;;;;;;;8.43;5.07;;;;;;;;;;5050730;28;20663;-46
2023/09/21 03:38:18;;;;;;;7.22;4.85;;;;;;;;;;5034823;28;20208;-46
2023/09/21 03:40:50;;;;;;;8.93;5.28;;;;;;;;;;5051283;28;20216;-46
2023/09/21 03:43:18;;;;;;;8.20;5.30;;;;;;;;;;5032742;28;20704;-46
2023/09/21 03:45:47;;;;;;;7.32;4.88;;;;;;;;;;5033135;28;20204;-46
2023/09/21 03:48:14;;;;;;;8.18;5.20;;;;;;;;;;5035295;28;20208;-46
2023/09/21 03:50:43;;;;;;;7.18;5.30;;;;;;;;;;5019395;28;20629;-46
2023/09/21 03:53:13;;;;;;;9.48;5.63;;;;;;;;;;5034720;28;20212;-47
2023/09/21 03:55:41;;;;;;;9.43;5.30;;;;;;;;;;5031067;28;20199;-47
2023/09/21 03:58:09;;;;;;;15.52;5.10;;;;;;;;;;5051496;28;20238;-46
2023/09/21 04:00:36;;;;;;;8.77;4.93;;;;;;;;;;5052528;28;20641;-46
2023/09/21 04:03:11;;;;;;;8.20;4.60;;;;;;;;;;5052274;28;20196;-46
2023/09/21 04:06:08;;;;;;;7.30;5.07;;;;;;;;;;4958102;28;20202;-45
2023/09/21 04:08:36;;;;;;;7.45;4.38;;;;;;;;;;4958338;28;20231;-45
2023/09/21 04:11:03;;;;;;;6.20;4.70;;;;;;;;;;4973783;28;20750;-46
2023/09/21 04:13:31;;;;;;;9.77;5.18;;;;;;;;;;4990609;28;20218;-46
2023/09/21 04:15:58;;;;;;;8.95;4.70;;;;;;;;;;4990546;28;20226;-46
2023/09/21 04:18:26;;;;;;;6.93;4.97;;;;;;;;;;4977137;28;20226;-46
2023/09/21 04:20:54;;;;;;;8.32;5.05;;;;;;;;;;4978156;28;20705;-45
2023/09/21 04:23:43;;;;;;;5.15;3.80;;;;;;;;;;4977937;28;20234;-46
2023/09/21 04:26:12;;;;;;;9.10;4.40;;;;;;;;;;4994752;28;20225;-47
2023/09/21 04:28:39;;;;;;;6.82;4.30;;;;;;;;;;4978236;28;20729;-47
2023/09/21 04:31:09;;;;;;;7.72;4.88;;;;;;;;;;4978350;28;20242;-46
2023/09/21 04:33:37;;;;;;;5.53;4.03;;;;;;;;;;4978339;28;20690;-47
2023/09/21 04:36:04;;;;;;;7.05;4.55;;;;;;;;;;4978105;28;20292;-47
2023/09/21 04:38:32;;;;;;;8.52;4.43;;;;;;;;;;4993943;28;20233;-46
2023/09/21 04:40:59;;;;;;;11.00;5.15;;;;;;;;;;4993483;28;20249;-47
2023/09/21 04:43:28;;;;;;;8.20;4.35;;;;;;;;;;5024814;28;20234;-47
2023/09/21 04:45:56;;;;;;;10.50;5.05;;;;;;;;;;5037676;28;20758;-46
2023/09/21 04:48:23;;;;;;;9.18;4.35;;;;;;;;;;5055768;28;20624;-46
2023/09/21 04:50:50;;;;;;;9.82;3.60;;;;;;;;;;5037524;28;20246;-46
2023/09/21 04:53:18;;;;;;;7.75;4.18;;;;;;;;;;5055528;28;20278;-46
2023/09/21 04:55:47;;;;;;;7.70;4.55;;;;;;;;;;5037610;28;20212;-50
2023/09/21 04:58:16;;;;;;;6.20;4.47;;;;;;;;;;5035570;28;20224;-45
2023/09/21 05:00:43;;;;;;;7.88;4.53;;;;;;;;;;5018191;28;20705;-46
2023/09/21 05:03:10;;;;;;;5.97;4.43;;;;;;;;;;5034505;28;20240;-46
2023/09/21 05:05:37;;;;;;;12.43;4.32;;;;;;;;;;5051501;28;20277;-47
2023/09/21 05:08:05;;;;;;;7.05;4.20;;;;;;;;;;5035710;28;20219;-47
2023/09/21 05:10:32;;;;;;;7.05;4.20;;;;;;;;;;5047888;28;20237;-45
2023/09/21 05:12:59;;;;;;;6.35;4.15;;;;;;;;;;5031455;28;20220;-46
2023/09/21 05:15:27;;;;;;;14.15;4.68;;;;;;;;;;5046549;28;20754;-45
2023/09/21 05:17:54;;;;;;;5.50;3.97;;;;;;;;;;5040268;28;20216;-45
2023/09/21 05:20:21;;;;;;;11.50;4.18;;;;;;;;;;5046336;28;20264;-45
2023/09/21 05:22:51;;;;;;;7.38;4.07;;;;;;;;;;5054640;28;20223;-48
2023/09/21 05:25:18;;;;;;;9.23;4.35;;;;;;;;;;5050225;28;20308;-44
2023/09/21 05:27:45;;;;;;;7.20;4.63;;;;;;;;;;5051027;28;20219;-44
2023/09/21 05:30:14;;;;;;;6.60;4.40;;;;;;;;;;5041886;28;20259;-44
2023/09/21 05:32:41;;;;;;;9.43;4.65;;;;;;;;;;5047033;28;20239;-44
2023/09/21 05:35:10;;;;;;;7.05;4.28;;;;;;;;;;5039227;28;20654;-44
2023/09/21 05:37:38;;;;;;;7.63;4.05;;;;;;;;;;5033931;28;20208;-44
2023/09/21 05:40:06;;;;;;;7.30;4.50;;;;;;;;;;5033272;28;20247;-44
2023/09/21 05:42:35;;;;;;;7.65;4.65;;;;;;;;;;5033097;28;20233;-47
2023/09/21 05:45:03;;;;;;;8.63;4.70;;;;;;;;;;5034455;28;20240;-45
2023/09/21 05:47:32;;;;;;;6.40;4.43;;;;;;;;;;5034631;28;20280;-44
2023/09/21 05:49:59;;;;;;;7.05;4.47;;;;;;;;;;5017765;28;20227;-45
2023/09/21 05:52:29;;;;;;;11.35;4.80;;;;;;;;;;5035377;28;20243;-44
2023/09/21 05:54:57;;;;;;;8.02;4.70;;;;;;;;;;5035579;28;20572;-44
2023/09/21 05:57:24;;;;;;;6.80;4.20;;;;;;;;;;5035643;28;20216;-44
2023/09/21 05:59:52;;;;;;;8.57;4.47;;;;;;;;;;5035618;28;20203;-44
2023/09/21 06:02:19;;;;;;;7.82;4.43;;;;;;;;;;5035362;28;20212;-45
2023/09/21 06:04:46;;;;;;;7.40;4.30;;;;;;;;;;5035573;28;20216;-44
2023/09/21 06:07:17;;;;;;;7.43;4.75;;;;;;;;;;5035270;28;20212;-46
2023/09/21 06:09:44;;;;;;;7.43;4.43;;;;;;;;;;5035230;28;20201;-44
2023/09/21 06:12:11;;;;;;;10.45;5.00;;;;;;;;;;5035006;28;20260;-45
2023/09/21 06:14:38;;;;;;;10.27;4.95;;;;;;;;;;5035543;28;20209;-45
2023/09/21 06:17:06;;;;;;;12.77;4.82;;;;;;;;;;5035378;28;20204;-44
2023/09/21 06:19:34;;;;;;;11.27;4.82;;;;;;;;;;5035124;28;20208;-45
2023/09/21 06:22:02;;;;;;;10.70;4.45;;;;;;;;;;5034842;28;20620;-44
2023/09/21 06:24:31;;;;;;;7.53;4.93;;;;;;;;;;5034902;28;20739;-45
2023/09/21 06:26:58;;;;;;;12.85;4.60;;;;;;;;;;5034829;28;20209;-43
2023/09/21 06:29:25;;;;;;;6.70;4.43;;;;;;;;;;5035314;28;20212;-45
2023/09/21 06:31:54;;;;;;;6.28;4.60;;;;;;;;;;5034900;28;20229;-44
2023/09/21 06:34:24;;;;;;;7.47;4.32;;;;;;;;;;5035342;28;20185;-45
2023/09/21 06:36:52;;;;;;;6.10;4.65;;;;;;;;;;5035025;28;20211;-45
2023/09/21 06:39:21;;;;;;;8.88;4.07;;;;;;;;;;5034592;28;20564;-46
2023/09/21 06:41:49;;;;;;;10.52;4.10;;;;;;;;;;5034616;28;20204;-44
2023/09/21 06:44:18;;;;;;;8.43;4.70;;;;;;;;;;5034584;28;20260;-45
2023/09/21 06:46:46;;;;;;;6.85;4.15;;;;;;;;;;5034430;28;20205;-45
2023/09/21 06:49:13;;;;;;;8.52;3.58;;;;;;;;;;5034415;28;20205;-45
2023/09/21 06:51:40;;;;;;;6.35;3.60;;;;;;;;;;5034289;28;20232;-45
2023/09/21 06:54:08;;;;;;;6.47;3.45;;;;;;;;;;5034200;28;20558;-44
2023/09/21 06:56:36;;;;;;;5.75;3.90;;;;;;;;;;5034528;28;20203;-46
2023/09/21 06:59:06;;;;;;;5.65;3.10;;;;;;;;;;5034208;28;20681;-45
2023/09/21 07:01:34;;;;;;;7.90;3.50;;;;;;;;;;5034336;28;20204;-45
2023/09/21 07:04:03;;;;;;;4.55;2.97;;;;;;;;;;5034185;28;20201;-44
2023/09/21 07:06:31;;;;;;;5.28;3.40;;;;;;;;;;5034419;28;20735;-45
2023/09/21 07:09:00;;;;;;;4.07;2.92;;;;;;;;;;5034131;28;20565;-45
2023/09/21 07:11:28;;;;;;;4.68;2.97;;;;;;;;;;5033945;28;20316;-44
2023/09/21 07:13:55;;;;;;;3.78;2.70;;;;;;;;;;5034004;28;20204;-44
2023/09/21 07:16:22;;;;;;;4.20;2.25;;;;;;;;;;5033885;28;20212;-44
2023/09/21 07:18:50;;;;;;;4.38;2.38;;;;;;;;;;4999806;28;20216;-45
2023/09/21 07:21:18;;;;;;;3.72;2.30;;;;;;;;;;5033828;28;20212;-45
2023/09/21 07:23:45;;;;;;;4.38;2.83;;;;;;;;;;5033672;28;20575;-44
2023/09/21 07:26:13;;;;;;;4.28;2.72;;;;;;;;;;5033805;28;20204;-45
2023/09/21 07:28:40;;;;;;;5.80;2.80;;;;;;;;;;5016684;28;20569;-44
2023/09/21 07:31:09;;;;;;;5.38;2.40;;;;;;;;;;5033842;28;20274;-45
2023/09/21 07:33:36;;;;;;;4.57;2.28;;;;;;;;;;5033619;28;20812;-44
2023/09/21 07:36:04;;;;;;;3.90;2.50;;;;;;;;;;5033887;28;20212;-44
2023/09/21 07:38:31;;;;;;;3.25;2.35;;;;;;;;;;5033340;28;20303;-45
2023/09/21 07:40:59;;;;;;;6.18;2.45;;;;;;;;;;5033809;28;20205;-45
2023/09/21 07:43:26;;;;;;;8.38;2.70;;;;;;;;;;5033651;28;20241;-46
2023/09/21 07:45:53;;;;;;;6.50;2.33;;;;;;;;;;5033723;28;20262;-44
2023/09/21 07:48:23;;;;;;;3.45;2.13;;;;;;;;;;5033404;28;20258;-44
2023/09/21 07:50:51;;;;;;;2.88;1.98;;;;;;;;;;5038003;28;20205;-44
2023/09/21 07:53:19;;;;;;;4.13;2.05;;;;;;;;;;5051480;28;20196;-47
2023/09/21 07:55:46;;;;;;;3.92;1.83;;;;;;;;;;5016364;28;20591;-45
2023/09/21 07:58:13;;;;;;;2.65;1.52;;;;;;;;;;5033970;28;20204;-44
2023/09/21 08:00:42;;;;;;;5.22;2.00;;;;;;;;;;5034617;28;20200;-45
2023/09/21 08:03:09;;;;;;;5.05;2.13;;;;;;;;;;5053269;28;20656;-44
2023/09/21 08:05:37;;;;;;;4.32;1.60;;;;;;;;;;5053461;28;20299;-44
2023/09/21 08:08:05;;;;;;;2.38;1.80;;;;;;;;;;5053183;28;20215;-44
2023/09/21 08:10:33;;;;;;;2.55;1.50;;;;;;;;;;5034680;28;20208;-45
2023/09/21 08:13:01;;;;;;;2.72;1.90;;;;;;;;;;5053045;28;20223;-44
2023/09/21 08:15:29;;;;;;;4.80;1.63;;;;;;;;;;5053031;28;20200;-44
2023/09/21 08:17:58;;;;;;;4.07;1.65;;;;;;;;;;5053227;28;20314;-44
2023/09/21 08:20:25;;;;;;;3.53;1.30;;;;;;;;;;5053079;28;20204;-44
2023/09/21 08:22:53;;;;;;;3.05;1.80;;;;;;;;;;5037779;28;20204;-44
2023/09/21 08:25:21;;;;;;;3.00;1.52;;;;;;;;;;5032896;28;20219;-44
2023/09/21 08:27:48;;;;;;;2.38;1.38;;;;;;;;;;5033032;28;20208;-44
2023/09/21 08:30:15;;;;;;;2.70;1.90;;;;;;;;;;5033103;28;20201;-44
2023/09/21 08:32:43;;;;;;;2.90;1.70;;;;;;;;;;5032967;28;20609;-44
2023/09/21 08:35:11;;;;;;;4.80;2.15;;;;;;;;;;5033179;28;20209;-45
2023/09/21 08:37:38;;;;;;;2.95;1.80;;;;;;;;;;5033207;28;20201;-45
2023/09/21 08:40:06;;;;;;;2.67;1.92;;;;;;;;;;5033455;28;20205;-45
2023/09/21 08:42:35;;;;;;;3.63;1.80;;;;;;;;;;5032840;28;20240;-45
2023/09/21 08:45:07;;;;;;;5.07;1.88;;;;;;;;;;5033007;28;20208;-47
2023/09/21 08:47:40;;;;;;;3.50;1.85;;;;;;;;;;5033204;28;20638;-45
2023/09/21 08:50:08;;;;;;;2.63;1.40;;;;;;;;;;5032921;28;20213;-46
2023/09/21 08:52:36;;;;;;;3.70;1.85;;;;;;;;;;5032747;28;20232;-45
2023/09/21 08:55:04;;;;;;;8.77;2.20;;;;;;;;;;5047373;28;20219;-46
2023/09/21 08:57:31;;;;;;;5.18;2.00;;;;;;;;;;5035192;28;20207;-45
2023/09/21 09:00:01;;;;;;;4.63;2.35;;;;;;;;;;5035423;28;20664;-45
2023/09/21 09:02:28;;;;;;;7.35;1.73;;;;;;;;;;5052781;28;20204;-45
2023/09/21 09:04:55;;;;;;;4.10;1.60;;;;;;;;;;5056238;28;20696;-45
2023/09/21 09:07:22;;;;;;;2.85;2.05;;;;;;;;;;5038849;28;20203;-45
2023/09/21 09:09:50;;;;;;;3.40;1.75;;;;;;;;;;5056510;28;20208;-44
2023/09/21 09:12:21;;;;;;;7.65;1.95;;;;;;;;;;5056077;28;20311;-45
2023/09/21 09:14:50;;;;;;;2.67;1.83;;;;;;;;;;5056184;28;20239;-45
2023/09/21 09:17:18;;;;;;;3.03;1.90;;;;;;;;;;5055493;28;20548;-44
2023/09/21 09:19:46;;;;;;;11.55;2.47;;;;;;;;;;5055740;28;20258;-45
2023/09/21 09:22:15;;;;;;;2.90;1.95;;;;;;;;;;5056235;28;20204;-44
2023/09/21 09:24:47;;;;;;;3.30;1.73;;;;;;;;;;5055929;28;20211;-44
2023/09/21 09:27:15;;;;;;;2.45;1.60;;;;;;;;;;5055855;28;20203;-49
2023/09/21 09:29:53;;;;;;;2.30;1.50;;;;;;;;;;5056026;28;20199;-45
2023/09/21 09:32:21;;;;;;;5.20;1.48;;;;;;;;;;5051518;28;20235;-45
2023/09/21 09:34:48;;;;;;;3.83;1.65;;;;;;;;;;5035541;28;20673;-46
2023/09/21 09:37:16;;;;;;;2.83;1.70;;;;;;;;;;5035787;28;20283;-45
2023/09/21 09:39:44;;;;;;;2.42;1.75;;;;;;;;;;5035792;28;20219;-46
2023/09/21 09:42:13;;;;;;;4.43;1.55;;;;;;;;;;5035493;28;20216;-44
2023/09/21 09:44:46;;;;;;;1.80;1.33;;;;;;;;;;5035848;28;20216;-46
2023/09/21 09:47:16;;;;;;;1.92;1.35;;;;;;;;;;5018692;28;20279;-45
2023/09/21 09:49:49;;;;;;;5.55;1.60;;;;;;;;;;5036296;28;20216;-45
2023/09/21 09:52:18;;;;;;;2.60;1.40;;;;;;;;;;5019249;28;20227;-45
2023/09/21 09:54:48;;;;;;;2.83;1.58;;;;;;;;;;5030277;28;20215;-45
2023/09/21 09:57:16;;;;;;;2.42;1.40;;;;;;;;;;5055209;28;20200;-45
2023/09/21 09:59:44;;;;;;;3.05;1.58;;;;;;;;;;5055340;28;20207;-44
2023/09/21 10:02:14;;;;;;;2.63;1.33;;;;;;;;;;5055438;28;20208;-45
2023/09/21 10:04:42;;;;;;;2.25;1.27;;;;;;;;;;5055239;28;20215;-45
2023/09/21 10:07:10;;;;;;;2.85;1.50;;;;;;;;;;5055210;28;20215;-47
2023/09/21 10:09:38;;;;;;;4.15;1.15;;;;;;;;;;5055158;28;20657;-45
2023/09/21 10:12:05;;;;;;;2.65;1.40;;;;;;;;;;5037226;28;20311;-45
2023/09/21 10:14:35;;;;;;;3.08;1.50;;;;;;;;;;5054856;28;20212;-45
2023/09/21 10:17:05;;;;;;;2.25;1.40;;;;;;;;;;5055147;28;20282;-46
2023/09/21 10:19:38;;;;;;;1.83;1.40;;;;;;;;;;5054887;28;20208;-44
2023/09/21 10:22:25;;;;;;;3.95;1.70;;;;;;;;;;5054920;28;20219;-46
2023/09/21 10:24:58;;;;;;;4.53;1.70;;;;;;;;;;5055350;28;20192;-45
2023/09/21 10:27:33;;;;;;;2.53;1.40;;;;;;;;;;5054942;28;20290;-45
2023/09/21 10:30:06;;;;;;;2.70;1.27;;;;;;;;;;5054834;28;20200;-44
2023/09/21 10:32:47;;;;;;;3.17;1.30;;;;;;;;;;5054737;28;20224;-45
2023/09/21 10:35:49;;;;;;;3.47;1.15;;;;;;;;;;5054727;28;20253;-46
2023/09/21 10:38:17;;;;;;;2.40;1.25;;;;;;;;;;5048984;28;20204;-46
2023/09/21 10:40:44;;;;;;;2.00;1.30;;;;;;;;;;5034646;28;20196;-44
2023/09/21 10:43:38;;;;;;;2.65;1.13;;;;;;;;;;5034410;28;20240;-46
2023/09/21 10:46:21;;;;;;;4.15;1.10;;;;;;;;;;5026405;28;20265;-47
2023/09/21 10:49:19;;;;;;;1.17;0.80;;;;;;;;;;5034488;28;20232;-44
2023/09/21 10:51:46;;;;;;;1.20;1.00;;;;;;;;;;5034708;28;20180;-45
2023/09/21 10:54:13;;;;;;;1.60;1.30;;;;;;;;;;5017121;28;20200;-45
2023/09/21 10:56:43;;;;;;;2.92;1.23;;;;;;;;;;5034313;28;20204;-47
2023/09/21 10:59:11;;;;;;;1.27;1.05;;;;;;;;;;5034380;28;20204;-45
2023/09/21 11:01:39;;;;;;;2.33;1.13;;;;;;;;;;5034424;28;20211;-46
2023/09/21 11:04:06;;;;;;;5.07;1.25;;;;;;;;;;5034439;28;20196;-45
2023/09/21 11:06:34;;;;;;;1.95;1.27;;;;;;;;;;5016757;28;20295;-45
2023/09/21 11:09:02;;;;;;;2.05;1.50;;;;;;;;;;5034168;28;20566;-44
2023/09/21 11:11:29;;;;;;;1.60;0.90;;;;;;;;;;5034087;28;20200;-45
2023/09/21 11:13:56;;;;;;;1.75;1.13;;;;;;;;;;5033755;28;20294;-45
2023/09/21 11:16:25;;;;;;;3.47;1.02;;;;;;;;;;5034489;28;20215;-46
2023/09/21 11:18:54;;;;;;;1.67;1.15;;;;;;;;;;5016593;28;20213;-45
2023/09/21 11:21:22;;;;;;;2.45;1.17;;;;;;;;;;5045711;28;20208;-46
2023/09/21 11:23:49;;;;;;;1.55;1.13;;;;;;;;;;5046840;28;20238;-45
2023/09/21 11:26:17;;;;;;;1.88;1.08;;;;;;;;;;5033409;28;20212;-44
2023/09/21 11:28:44;;;;;;;2.25;1.20;;;;;;;;;;5032944;28;20210;-45
2023/09/21 11:31:12;;;;;;;1.80;0.95;;;;;;;;;;5033972;28;20209;-45
2023/09/21 11:33:40;;;;;;;2.42;1.45;;;;;;;;;;5033656;28;20234;-46
2023/09/21 11:36:08;;;;;;;1.55;1.00;;;;;;;;;;5040731;28;20224;-46
2023/09/21 11:38:36;;;;;;;2.33;1.00;;;;;;;;;;5049628;28;20319;-46
2023/09/21 11:41:04;;;;;;;1.90;1.05;;;;;;;;;;5044094;28;20228;-46
2023/09/21 11:43:32;;;;;;;5.28;1.15;;;;;;;;;;5045444;28;20653;-45
2023/09/21 11:46:03;;;;;;;2.47;1.17;;;;;;;;;;5045008;28;20235;-46
2023/09/21 11:48:32;;;;;;;4.15;1.25;;;;;;;;;;5032733;28;20228;-46
2023/09/21 11:51:04;;;;;;;4.05;1.20;;;;;;;;;;4998694;28;20275;-46
2023/09/21 11:53:32;;;;;;;2.78;1.25;;;;;;;;;;5033454;28;20590;-45
2023/09/21 11:55:59;;;;;;;2.08;1.17;;;;;;;;;;5032806;28;20231;-45
2023/09/21 11:58:31;;;;;;;1.63;1.10;;;;;;;;;;5039972;28;20239;-45
2023/09/21 12:03:37;;;;;;;1.75;1.20;;;;;;;;;;5035435;28;20226;-45
2023/09/21 12:06:05;;;;;;;1.90;1.10;;;;;;;;;;5052715;28;20227;-45
2023/09/21 12:08:33;;;;;;;3.00;1.00;;;;;;;;;;5049956;28;20227;-44
2023/09/21 12:11:04;;;;;;;1.63;1.05;;;;;;;;;;5049990;28;20242;-45
2023/09/21 12:13:31;;;;;;;1.80;1.10;;;;;;;;;;5052424;28;20281;-45
2023/09/21 12:16:00;;;;;;;1.67;1.10;;;;;;;;;;5052697;28;20220;-46
2023/09/21 12:18:29;;;;;;;2.45;1.20;;;;;;;;;;5051312;28;20228;-46
2023/09/21 12:21:00;;;;;;;3.78;1.10;;;;;;;;;;5049395;28;20852;-45
2023/09/21 12:23:28;;;;;;;4.00;3.38;;;;;;;;;;5034269;28;20315;-45
2023/09/21 12:25:56;;;;;;;2.90;1.35;;;;;;;;;;5050742;28;20220;-46
2023/09/21 12:28:23;;;;;;;4.28;1.30;;;;;;;;;;5050295;28;20704;-45
2023/09/21 12:30:51;;;;;;;3.42;1.17;;;;;;;;;;5048552;28;20223;-45
2023/09/21 12:33:21;;;;;;;1.55;1.02;;;;;;;;;;5031165;28;20290;-48
2023/09/21 12:35:51;;;;;;;1.80;0.90;;;;;;;;;;5046029;28;20270;-45
2023/09/21 12:38:18;;;;;;;3.42;1.38;;;;;;;;;;5047490;28;20762;-46
2023/09/21 12:40:47;;;;;;;2.25;1.10;;;;;;;;;;5051313;28;20221;-45
2023/09/21 12:43:16;;;;;;;1.65;1.02;;;;;;;;;;5047739;28;20263;-46
2023/09/21 12:45:43;;;;;;;1.25;1.00;;;;;;;;;;5037874;28;20212;-47
2023/09/21 12:48:12;;;;;;;2.72;0.90;;;;;;;;;;5045223;28;20223;-45
2023/09/21 12:50:40;;;;;;;1.67;1.20;;;;;;;;;;5055753;28;20266;-46
2023/09/21 12:53:08;;;;;;;5.10;1.33;;;;;;;;;;5052582;28;20475;-46
2023/09/21 12:55:37;;;;;;;1.75;1.17;;;;;;;;;;5055083;28;20748;-48
2023/09/21 12:58:06;;;;;;;2.20;1.20;;;;;;;;;;5055824;28;20605;-45
2023/09/21 13:00:34;;;;;;;2.70;1.15;;;;;;;;;;5056404;28;20200;-47
2023/09/21 13:03:02;;;;;;;1.88;1.10;;;;;;;;;;5053739;28;20210;-45
2023/09/21 13:05:30;;;;;;;1.17;0.93;;;;;;;;;;5038012;28;20667;-46
2023/09/21 13:07:57;;;;;;;2.45;1.35;;;;;;;;;;5054109;28;20192;-46
2023/09/21 13:10:24;;;;;;;2.35;1.30;;;;;;;;;;5053548;28;20208;-46
2023/09/21 13:12:51;;;;;;;2.35;1.10;;;;;;;;;;5045962;28;20216;-45
2023/09/21 13:15:19;;;;;;;3.28;1.25;;;;;;;;;;5047871;28;20545;-46
2023/09/21 13:17:46;;;;;;;1.58;1.05;;;;;;;;;;5055945;28;20220;-47
2023/09/21 13:20:19;;;;;;;1.80;1.20;;;;;;;;;;5055611;28;20203;-46
2023/09/21 13:22:47;;;;;;;2.85;1.20;;;;;;;;;;5055740;28;20204;-47
2023/09/21 13:25:15;;;;;;;1.80;1.17;;;;;;;;;;5055434;28;20207;-46
2023/09/21 13:27:42;;;;;;;4.22;1.30;;;;;;;;;;5055265;28;20572;-47
2023/09/21 13:30:10;;;;;;;2.72;1.30;;;;;;;;;;5004275;28;20254;-47
2023/09/21 13:32:37;;;;;;;1.60;1.30;;;;;;;;;;5054917;28;20227;-47
2023/09/21 13:35:05;;;;;;;2.22;1.13;;;;;;;;;;5056008;28;20215;-46
2023/09/21 13:37:32;;;;;;;2.97;1.45;;;;;;;;;;5056109;28;20258;-47
2023/09/21 13:40:00;;;;;;;1.63;1.17;;;;;;;;;;5055707;28;20265;-46
2023/09/21 13:42:28;;;;;;;4.25;1.10;;;;;;;;;;5055717;28;20223;-46
2023/09/21 13:44:57;;;;;;;1.50;1.05;;;;;;;;;;5055638;28;20204;-46
2023/09/21 13:47:25;;;;;;;2.60;1.30;;;;;;;;;;5055387;28;20603;-45
2023/09/21 13:49:53;;;;;;;2.05;1.10;;;;;;;;;;5037039;28;20208;-46
2023/09/21 13:52:20;;;;;;;1.35;1.05;;;;;;;;;;5032134;28;20220;-45
2023/09/21 13:54:48;;;;;;;2.85;1.10;;;;;;;;;;5047039;28;20228;-47
2023/09/21 13:57:31;;;;;;;1.85;1.27;;;;;;;;;;5054598;28;20323;-45
2023/09/21 13:59:59;;;;;;;3.72;1.10;;;;;;;;;;5048899;28;20220;-45
2023/09/21 14:02:27;;;;;;;1.95;1.17;;;;;;;;;;5044974;28;20224;-46
2023/09/21 14:04:54;;;;;;;3.10;1.30;;;;;;;;;;5053275;28;20590;-46
2023/09/21 14:07:22;;;;;;;2.15;1.02;;;;;;;;;;5053503;28;20234;-47
2023/09/21 14:09:49;;;;;;;2.35;1.40;;;;;;;;;;5052064;28;20212;-47
2023/09/21 14:12:16;;;;;;;2.40;1.10;;;;;;;;;;5052285;28;20224;-49
2023/09/21 14:14:43;;;;;;;3.30;1.30;;;;;;;;;;5052547;28;20239;-45
2023/09/21 14:17:11;;;;;;;2.20;1.20;;;;;;;;;;5054017;28;20256;-45
2023/09/21 14:19:38;;;;;;;2.92;1.27;;;;;;;;;;5053868;28;20286;-46
2023/09/21 14:22:06;;;;;;;3.58;1.17;;;;;;;;;;5053814;28;20223;-46
2023/09/21 14:24:33;;;;;;;1.38;1.10;;;;;;;;;;5054281;28;20224;-46
2023/09/21 14:27:00;;;;;;;1.20;0.90;;;;;;;;;;5053936;28;20216;-46
2023/09/21 14:29:28;;;;;;;1.92;1.17;;;;;;;;;;5054384;28;20350;-45
2023/09/21 14:31:55;;;;;;;2.35;1.10;;;;;;;;;;5053881;28;20228;-45
2023/09/21 14:34:22;;;;;;;1.27;1.17;;;;;;;;;;5053802;28;20239;-44
2023/09/21 14:36:49;;;;;;;2.90;1.33;;;;;;;;;;5053442;28;20219;-45
2023/09/21 14:39:17;;;;;;;6.35;1.30;;;;;;;;;;5054371;28;20258;-44
2023/09/21 14:41:44;;;;;;;2.38;1.10;;;;;;;;;;5053328;28;20216;-46
2023/09/21 14:44:11;;;;;;;1.67;1.13;;;;;;;;;;5050756;28;20247;-45
2023/09/21 14:46:39;;;;;;;3.75;1.30;;;;;;;;;;5053490;28;20278;-45
2023/09/21 14:49:06;;;;;;;4.78;1.52;;;;;;;;;;5053954;28;20219;-45
2023/09/21 14:51:33;;;;;;;2.53;1.17;;;;;;;;;;5053125;28;20232;-46
2023/09/21 14:54:00;;;;;;;2.00;1.23;;;;;;;;;;5053788;28;20240;-45